createdAt,value
2018-12-19T00:01:26.140Z,59.77
2018-12-19T00:03:54.680Z,61.33
2018-12-19T00:06:23.208Z,61.27
2018-12-19T00:08:51.724Z,61.47
2018-12-19T00:11:20.275Z,58.17
2018-12-19T00:13:48.957Z,58.20
2018-12-19T00:16:17.478Z,58.63
2018-12-19T00:18:46.001Z,58.97
2018-12-19T00:21:14.535Z,59.93
2018-12-19T00:23:43.806Z,62.50
2018-12-19T00:26:12.339Z,60.97
2018-12-19T00:28:40.904Z,57.20
2018-12-19T00:31:09.464Z,58.63
2018-12-19T00:33:38.008Z,62.03
2018-12-19T00:36:06.696Z,61.87
2018-12-19T00:38:35.256Z,61.80
2018-12-19T00:41:03.827Z,59.70
2018-12-19T00:43:32.355Z,61.90
2018-12-19T00:46:00.903Z,60.40
2018-12-19T00:48:30.003Z,58.83
2018-12-19T00:50:58.543Z,59.47
2018-12-19T00:53:27.091Z,60.07
2018-12-19T00:55:55.643Z,59.70
2018-12-19T00:58:24.331Z,60.23
2018-12-19T01:00:52.891Z,58.83
2018-12-19T01:03:21.434Z,60.83
2018-12-19T01:05:49.988Z,60.47
2018-12-19T01:08:18.550Z,60.40
2018-12-19T01:10:47.135Z,59.83
2018-12-19T01:13:16.495Z,59.47
2018-12-19T01:15:45.031Z,59.93
2018-12-19T01:18:13.568Z,58.67
2018-12-19T01:20:42.123Z,60.83
2018-12-19T01:23:10.691Z,63.20
2018-12-19T01:25:39.255Z,62.90
2018-12-19T01:28:07.779Z,64.63
2018-12-19T01:30:36.311Z,62.93
2018-12-19T01:33:04.871Z,64.10
2018-12-19T01:35:33.459Z,65.03
2018-12-19T01:38:02.027Z,63.50
2018-12-19T01:40:30.553Z,69.20
2018-12-19T01:42:59.115Z,68.00
2018-12-19T01:45:27.627Z,67.03
2018-12-19T01:47:56.464Z,68.17
2018-12-19T01:50:25.063Z,66.50
2018-12-19T01:52:53.603Z,62.57
2018-12-19T01:55:22.183Z,63.20
2018-12-19T01:57:50.707Z,59.93
2018-12-19T02:00:21.243Z,59.63
2018-12-19T02:02:49.794Z,58.60
2018-12-19T02:05:18.426Z,57.60
2018-12-19T02:07:46.946Z,58.37
2018-12-19T02:10:15.474Z,61.63
2018-12-19T02:12:44.035Z,56.67
2018-12-19T02:15:12.570Z,59.03
2018-12-19T02:17:41.094Z,59.77
2018-12-19T02:20:09.754Z,58.27
2018-12-19T02:22:38.302Z,59.70
2018-12-19T02:25:07.049Z,57.63
2018-12-19T02:27:35.586Z,59.63
2018-12-19T02:30:04.731Z,58.67
2018-12-19T02:32:33.231Z,58.63
2018-12-19T02:35:02.028Z,61.07
2018-12-19T02:37:30.571Z,60.97
2018-12-19T02:39:59.083Z,59.87
2018-12-19T02:42:27.633Z,58.17
2018-12-19T02:44:56.172Z,57.20
2018-12-19T02:47:24.681Z,59.30
2018-12-19T02:49:53.223Z,59.43
2018-12-19T02:52:21.769Z,59.80
2018-12-19T02:54:50.324Z,56.10
2018-12-19T02:57:18.872Z,55.13
2018-12-19T02:59:47.429Z,60.93
2018-12-19T03:02:15.986Z,57.47
2018-12-19T03:04:44.536Z,62.03
2018-12-19T03:07:13.057Z,55.30
2018-12-19T03:09:43.036Z,62.77
2018-12-19T03:12:11.768Z,61.30
2018-12-19T03:14:40.304Z,57.77
2018-12-19T03:17:08.853Z,58.10
2018-12-19T03:19:37.372Z,63.00
2018-12-19T03:22:05.900Z,56.53
2018-12-19T03:24:34.421Z,61.47
2018-12-19T03:27:02.993Z,62.27
2018-12-19T03:29:31.528Z,59.20
2018-12-19T03:32:00.073Z,63.37
2018-12-19T03:34:28.604Z,59.27
2018-12-19T03:36:57.173Z,65.57
2018-12-19T03:39:25.979Z,58.60
2018-12-19T03:41:54.769Z,60.40
2018-12-19T03:44:23.420Z,59.77
2018-12-19T03:46:51.985Z,57.37
2018-12-19T03:49:20.664Z,61.73
2018-12-19T03:51:49.425Z,59.17
2018-12-19T03:54:18.267Z,62.10
2018-12-19T03:56:47.217Z,59.30
2018-12-19T03:59:15.755Z,61.00
2018-12-19T04:01:44.296Z,61.17
2018-12-19T04:04:12.964Z,61.63
2018-12-19T04:06:41.508Z,65.10
2018-12-19T04:09:10.075Z,63.17
2018-12-19T04:11:38.607Z,60.20
2018-12-19T04:14:07.336Z,61.97
2018-12-19T04:16:35.856Z,64.10
2018-12-19T04:19:04.388Z,64.40
2018-12-19T04:21:32.932Z,65.50
2018-12-19T04:24:01.477Z,66.17
2018-12-19T04:26:29.991Z,62.57
2018-12-19T04:28:58.540Z,67.53
2018-12-19T04:31:27.092Z,64.53
2018-12-19T04:33:55.621Z,65.27
2018-12-19T04:36:24.201Z,62.77
2018-12-19T04:38:52.772Z,65.67
2018-12-19T04:41:21.404Z,65.50
2018-12-19T04:43:49.926Z,64.60
2018-12-19T04:46:18.460Z,66.30
2018-12-19T04:48:47.001Z,64.03
2018-12-19T04:51:15.556Z,63.70
2018-12-19T04:53:44.089Z,60.33
2018-12-19T04:56:12.608Z,66.00
2018-12-19T04:58:41.145Z,59.83
2018-12-19T05:01:09.684Z,63.67
2018-12-19T05:03:38.243Z,60.20
2018-12-19T05:06:06.803Z,64.03
2018-12-19T05:08:35.380Z,58.90
2018-12-19T05:11:03.961Z,57.80
2018-12-19T05:13:32.534Z,60.87
2018-12-19T05:16:01.110Z,59.90
2018-12-19T05:18:29.682Z,60.97
2018-12-19T05:20:58.227Z,64.23
2018-12-19T05:23:26.793Z,61.97
2018-12-19T05:25:55.349Z,57.13
2018-12-19T05:28:23.925Z,59.10
2018-12-19T05:30:52.497Z,57.70
2018-12-19T05:33:21.053Z,56.17
2018-12-19T05:35:49.615Z,55.93
2018-12-19T05:38:18.201Z,59.23
2018-12-19T05:40:47.093Z,55.50
2018-12-19T05:43:15.756Z,53.70
2018-12-19T05:45:44.333Z,58.67
2018-12-19T05:48:12.887Z,59.53
2018-12-19T05:50:41.473Z,56.40
2018-12-19T05:53:10.025Z,58.20
2018-12-19T05:55:38.597Z,54.17
2018-12-19T05:58:07.173Z,55.03
2018-12-19T06:00:35.715Z,57.00
2018-12-19T06:03:04.277Z,70.90
2018-12-19T06:05:32.835Z,54.43
2018-12-19T06:08:01.406Z,55.50
2018-12-19T06:10:29.958Z,54.37
2018-12-19T06:12:58.499Z,50.67
2018-12-19T06:15:27.026Z,53.80
2018-12-19T06:17:55.574Z,51.17
2018-12-19T06:20:24.226Z,52.77
2018-12-19T06:22:52.750Z,50.60
2018-12-19T06:25:21.352Z,53.83
2018-12-19T06:27:50.166Z,50.87
2018-12-19T06:30:19.238Z,48.87
2018-12-19T06:32:47.762Z,46.07
2018-12-19T06:35:16.289Z,49.67
2018-12-19T06:37:44.814Z,48.73
2018-12-19T06:40:13.313Z,48.80
2018-12-19T06:42:41.975Z,47.97
2018-12-19T06:45:10.526Z,50.53
2018-12-19T06:47:39.033Z,56.00
2018-12-19T06:50:09.059Z,49.37
2018-12-19T06:52:37.593Z,48.87
2018-12-19T06:55:06.527Z,52.03
2018-12-19T06:57:35.095Z,47.87
2018-12-19T07:00:03.893Z,49.37
2018-12-19T07:02:32.437Z,46.80
2018-12-19T07:05:00.994Z,47.90
2018-12-19T07:07:29.505Z,47.70
2018-12-19T07:09:58.033Z,50.70
2018-12-19T07:12:26.553Z,51.23
2018-12-19T07:14:55.077Z,45.63
2018-12-19T07:17:23.600Z,45.90
2018-12-19T07:19:52.156Z,46.67
2018-12-19T07:22:20.688Z,43.77
2018-12-19T07:24:49.217Z,45.53
2018-12-19T07:27:17.769Z,44.47
2018-12-19T07:29:46.308Z,46.60
2018-12-19T07:32:14.852Z,42.47
2018-12-19T07:34:44.277Z,46.13
2018-12-19T07:37:13.184Z,44.70
2018-12-19T07:39:42.408Z,42.90
2018-12-19T07:42:10.920Z,43.70
2018-12-19T07:44:39.408Z,39.40
2018-12-19T07:47:07.945Z,40.90
2018-12-19T07:49:36.436Z,42.00
2018-12-19T07:52:05.118Z,44.07
2018-12-19T07:54:33.644Z,39.63
2018-12-19T07:57:02.299Z,42.13
2018-12-19T07:59:30.828Z,39.83
2018-12-19T08:01:59.344Z,41.03
2018-12-19T08:04:28.166Z,38.17
2018-12-19T08:06:59.568Z,40.93
2018-12-19T08:09:30.451Z,38.43
2018-12-19T08:11:59.123Z,35.87
2018-12-19T08:14:27.636Z,32.50
2018-12-19T08:16:56.167Z,31.53
2018-12-19T08:19:24.715Z,33.63
2018-12-19T08:21:53.247Z,31.80
2018-12-19T08:24:21.760Z,32.63
2018-12-19T08:26:50.307Z,33.17
2018-12-19T08:29:18.843Z,29.73
2018-12-19T08:31:47.372Z,31.93
2018-12-19T08:34:16.047Z,31.00
2018-12-19T08:36:44.823Z,31.73
2018-12-19T08:39:13.683Z,31.03
2018-12-19T08:41:42.510Z,29.77
2018-12-19T08:44:11.059Z,28.97
2018-12-19T08:46:39.587Z,33.10
2018-12-19T08:49:08.128Z,34.83
2018-12-19T08:51:36.683Z,32.30
2018-12-19T08:54:05.219Z,31.90
2018-12-19T08:56:33.739Z,30.23
2018-12-19T08:59:02.373Z,32.63
2018-12-19T09:01:31.007Z,32.20
2018-12-19T09:03:59.549Z,28.70
2018-12-19T09:06:28.089Z,28.80
2018-12-19T09:08:56.655Z,28.17
2018-12-19T09:11:25.247Z,31.17
2018-12-19T09:13:53.966Z,29.30
2018-12-19T09:16:22.487Z,28.10
2018-12-19T09:18:51.023Z,30.30
2018-12-19T09:21:19.557Z,27.13
2018-12-19T09:23:48.078Z,27.00
2018-12-19T09:26:16.755Z,25.97
2018-12-19T09:28:45.291Z,26.03
2018-12-19T09:31:13.856Z,24.53
2018-12-19T09:33:42.398Z,28.70
2018-12-19T09:36:10.942Z,27.47
2018-12-19T09:38:40.925Z,25.40
2018-12-19T09:41:12.483Z,24.47
2018-12-19T09:46:23.231Z,26.03
2018-12-19T09:48:51.733Z,24.80
2018-12-19T09:51:20.305Z,23.80
2018-12-19T09:53:48.881Z,22.83
2018-12-19T09:56:17.509Z,21.73
2018-12-19T09:58:46.053Z,26.20
2018-12-19T10:01:14.594Z,23.53
2018-12-19T10:03:43.133Z,23.63
2018-12-19T10:06:18.445Z,23.13
2018-12-19T10:08:47.033Z,24.37
2018-12-19T10:11:18.722Z,21.57
2018-12-19T10:13:46.137Z,22.47
2018-12-19T10:16:14.678Z,20.13
2018-12-19T10:18:43.432Z,21.97
2018-12-19T10:21:12.025Z,24.13
2018-12-19T10:23:40.696Z,24.13
2018-12-19T10:26:13.837Z,21.33
2018-12-19T10:28:42.371Z,21.70
2018-12-19T10:31:10.892Z,22.83
2018-12-19T10:33:39.432Z,22.30
2018-12-19T10:36:08.081Z,20.83
2018-12-19T10:38:36.601Z,21.83
2018-12-19T10:41:05.113Z,22.00
2018-12-19T10:43:33.653Z,22.03
2018-12-19T10:46:02.342Z,23.73
2018-12-19T10:48:30.917Z,24.90
2018-12-19T10:50:59.433Z,26.57
2018-12-19T10:53:27.988Z,25.63
2018-12-19T10:55:56.533Z,24.77
2018-12-19T10:58:25.034Z,24.80
2018-12-19T11:01:01.361Z,25.80
2018-12-19T11:03:30.213Z,27.53
2018-12-19T11:05:58.785Z,25.03
2018-12-19T11:08:27.570Z,27.90
2018-12-19T11:10:56.208Z,29.90
2018-12-19T11:13:24.752Z,27.80
2018-12-19T11:15:53.737Z,33.37
2018-12-19T11:18:22.276Z,29.40
2018-12-19T11:20:51.053Z,27.90
2018-12-19T11:23:20.028Z,27.20
2018-12-19T11:25:48.616Z,27.43
2018-12-19T11:28:17.120Z,25.17
2018-12-19T11:30:45.688Z,29.57
2018-12-19T11:33:14.244Z,28.63
2018-12-19T11:35:42.840Z,27.27
2018-12-19T11:38:11.374Z,27.97
2018-12-19T11:40:39.924Z,25.77
2018-12-19T11:43:08.432Z,27.27
2018-12-19T11:45:36.968Z,26.77
2018-12-19T11:48:05.504Z,26.27
2018-12-19T11:50:34.133Z,28.87
2018-12-19T11:53:03.348Z,27.97
2018-12-19T11:55:31.900Z,26.00
2018-12-19T11:58:00.405Z,27.30
2018-12-19T12:00:28.913Z,27.40
2018-12-19T12:02:57.468Z,26.87
2018-12-19T12:05:26.013Z,27.07
2018-12-19T12:07:54.537Z,27.23
2018-12-19T12:10:23.032Z,38.33
2018-12-19T12:12:51.596Z,29.40
2018-12-19T12:15:20.116Z,31.80
2018-12-19T12:17:48.644Z,39.03
2018-12-19T12:20:17.148Z,31.47
2018-12-19T12:22:45.688Z,31.13
2018-12-19T12:25:14.364Z,33.40
2018-12-19T12:27:42.900Z,30.07
2018-12-19T12:30:11.532Z,32.00
2018-12-19T12:32:40.067Z,32.63
2018-12-19T12:35:08.936Z,29.87
2018-12-19T12:37:37.602Z,31.40
2018-12-19T12:40:07.692Z,35.50
2018-12-19T12:42:36.216Z,33.20
2018-12-19T12:45:05.141Z,31.43
2018-12-19T12:47:33.672Z,31.07
2018-12-19T12:50:02.204Z,34.00
2018-12-19T12:52:30.749Z,35.53
2018-12-19T12:54:59.317Z,34.37
2018-12-19T12:57:27.838Z,32.00
2018-12-19T12:59:56.380Z,31.80
2018-12-19T13:02:24.900Z,32.40
2018-12-19T13:04:53.451Z,35.83
2018-12-19T13:07:22.020Z,36.37
2018-12-19T13:09:50.600Z,34.73
2018-12-19T13:12:19.168Z,32.43
2018-12-19T13:14:47.700Z,31.07
2018-12-19T13:17:16.255Z,35.00
2018-12-19T13:19:44.830Z,30.47
2018-12-19T13:22:13.392Z,29.77
2018-12-19T13:24:41.940Z,31.20
2018-12-19T13:27:10.519Z,33.07
2018-12-19T13:29:39.040Z,31.80
2018-12-19T13:32:08.116Z,35.37
2018-12-19T13:34:36.759Z,31.20
2018-12-19T13:37:05.294Z,38.77
2018-12-19T13:39:33.964Z,39.90
2018-12-19T13:42:05.657Z,35.73
2018-12-19T13:44:33.254Z,38.03
2018-12-19T13:47:01.778Z,36.83
2018-12-19T13:49:30.318Z,34.53
2018-12-19T13:51:58.822Z,35.37
2018-12-19T13:54:28.973Z,29.80
2018-12-19T13:56:57.510Z,30.93
2018-12-19T13:59:26.122Z,36.70
2018-12-19T14:01:54.655Z,37.90
2018-12-19T14:04:23.203Z,45.80
2018-12-19T14:06:51.731Z,38.93
2018-12-19T14:09:20.275Z,29.87
2018-12-19T14:11:48.807Z,27.53
2018-12-19T14:14:17.343Z,32.10
2018-12-19T14:16:45.943Z,27.10
2018-12-19T14:19:14.458Z,30.60
2018-12-19T14:21:42.994Z,31.93
2018-12-19T14:24:11.515Z,31.87
2018-12-19T14:26:43.739Z,29.73
2018-12-19T14:29:12.242Z,28.53
2018-12-19T14:31:40.758Z,33.10
2018-12-19T14:34:09.283Z,31.67
2018-12-19T14:36:37.837Z,33.77
2018-12-19T14:39:08.202Z,30.47
2018-12-19T14:41:36.838Z,30.20
2018-12-19T14:44:05.578Z,33.10
2018-12-19T14:46:34.094Z,40.27
2018-12-19T14:49:03.153Z,34.33
2018-12-19T14:51:31.750Z,33.40
2018-12-19T14:54:00.307Z,30.43
2018-12-19T14:56:28.873Z,32.20
2018-12-19T14:58:57.378Z,34.80
2018-12-19T15:01:26.013Z,35.90
2018-12-19T15:03:54.517Z,36.87
2018-12-19T15:06:23.038Z,37.67
2018-12-19T15:08:51.578Z,32.30
2018-12-19T15:11:20.249Z,34.63
2018-12-19T15:13:49.497Z,31.47
2018-12-19T15:16:22.404Z,31.20
2018-12-19T15:18:51.357Z,31.63
2018-12-19T15:21:20.286Z,26.20
2018-12-19T15:23:48.821Z,29.20
2018-12-19T15:26:17.397Z,30.33
2018-12-19T15:28:45.920Z,35.87
2018-12-19T15:31:14.601Z,30.23
2018-12-19T15:33:43.149Z,28.07
2018-12-19T15:36:11.781Z,38.90
2018-12-19T15:38:40.417Z,36.57
2018-12-19T15:41:08.999Z,27.30
2018-12-19T15:43:37.593Z,54.63
2018-12-19T15:46:06.229Z,34.30
2018-12-19T15:48:34.800Z,51.83
2018-12-19T15:51:03.456Z,34.23
2018-12-19T15:53:31.985Z,25.97
2018-12-19T15:56:00.501Z,33.90
2018-12-19T15:58:29.052Z,32.70
2018-12-19T16:00:57.644Z,28.33
2018-12-19T16:03:26.480Z,27.87
2018-12-19T16:05:55.076Z,32.67
2018-12-19T16:08:24.213Z,29.37
2018-12-19T16:10:52.912Z,27.80
2018-12-19T16:13:21.621Z,27.27
2018-12-19T16:15:50.292Z,36.00
2018-12-19T16:18:18.972Z,26.43
2018-12-19T16:20:47.648Z,29.63
2018-12-19T16:23:16.394Z,28.03
2018-12-19T16:25:45.089Z,35.53
2018-12-19T16:28:13.857Z,27.97
2018-12-19T16:30:42.688Z,37.83
2018-12-19T16:33:11.712Z,37.03
2018-12-19T16:35:40.397Z,43.60
2018-12-19T16:38:09.149Z,35.63
2018-12-19T16:40:37.904Z,31.10
2018-12-19T16:43:06.585Z,29.13
2018-12-19T16:45:35.407Z,32.87
2018-12-19T16:48:04.215Z,36.60
2018-12-19T16:50:32.972Z,31.00
2018-12-19T16:53:01.721Z,37.50
2018-12-19T16:55:30.472Z,35.03
2018-12-19T16:57:59.027Z,35.87
2018-12-19T17:00:28.282Z,31.60
2018-12-19T17:02:57.031Z,27.13
2018-12-19T17:05:25.571Z,35.10
2018-12-19T17:07:54.128Z,42.70
2018-12-19T17:10:22.663Z,37.47
2018-12-19T17:12:52.894Z,29.77
2018-12-19T17:15:21.624Z,30.03
2018-12-19T17:17:50.270Z,25.40
2018-12-19T17:20:19.104Z,27.13
2018-12-19T17:22:47.864Z,27.07
2018-12-19T17:25:16.579Z,26.87
2018-12-19T17:27:44.923Z,25.43
2018-12-19T17:30:13.568Z,31.70
2018-12-19T17:32:42.389Z,28.43
2018-12-19T17:35:11.344Z,34.70
2018-12-19T17:37:40.103Z,28.23
2018-12-19T17:40:08.931Z,27.03
2018-12-19T17:42:38.671Z,37.10
2018-12-19T17:45:07.756Z,27.33
2018-12-19T17:47:36.675Z,28.93
2018-12-19T17:50:06.115Z,37.37
2018-12-19T17:52:35.046Z,32.17
2018-12-19T17:55:04.091Z,34.60
2018-12-19T17:57:32.831Z,30.40
2018-12-19T18:00:01.743Z,31.97
2018-12-19T18:02:30.631Z,37.53
2018-12-19T18:04:59.575Z,28.37
2018-12-19T18:07:28.432Z,28.67
2018-12-19T18:09:57.324Z,28.50
2018-12-19T18:12:26.099Z,28.60
2018-12-19T18:14:55.819Z,32.27
2018-12-19T18:17:24.607Z,29.43
2018-12-19T18:19:53.503Z,28.93
2018-12-19T18:22:22.297Z,28.07
2018-12-19T18:24:51.281Z,29.87
2018-12-19T18:27:20.207Z,27.90
2018-12-19T18:29:48.972Z,28.30
2018-12-19T18:32:17.756Z,36.50
2018-12-19T18:34:46.563Z,32.13
2018-12-19T18:37:15.528Z,29.60
2018-12-19T18:39:44.304Z,30.37
2018-12-19T18:42:13.091Z,32.13
2018-12-19T18:44:41.867Z,30.07
2018-12-19T18:47:10.645Z,29.37
2018-12-19T18:49:39.560Z,29.93
2018-12-19T18:52:08.380Z,45.50
2018-12-19T18:54:37.372Z,27.83
2018-12-19T18:57:06.283Z,36.47
2018-12-19T18:59:35.245Z,32.57
2018-12-19T19:02:04.315Z,33.33
2018-12-19T19:04:33.147Z,32.43
2018-12-19T19:07:02.093Z,41.87
2018-12-19T19:09:31.108Z,33.33
2018-12-19T19:12:00.047Z,60.90
2018-12-19T19:14:32.852Z,57.60
2018-12-19T19:17:01.836Z,54.30
2018-12-19T19:19:30.784Z,57.03
2018-12-19T19:21:59.744Z,32.63
2018-12-19T19:24:28.652Z,32.33
2018-12-19T19:26:58.375Z,31.90
2018-12-19T19:29:27.348Z,68.27
2018-12-19T19:31:56.352Z,51.30
2018-12-19T19:34:25.408Z,47.87
2018-12-19T19:36:54.415Z,42.50
2018-12-19T19:39:23.444Z,39.40
2018-12-19T19:41:52.431Z,36.93
2018-12-19T19:44:21.399Z,37.87
2018-12-19T19:46:50.370Z,31.40
2018-12-19T19:49:19.356Z,30.30
2018-12-19T19:51:48.300Z,35.93
2018-12-19T19:54:17.700Z,37.67
2018-12-19T19:56:47.564Z,37.70
2018-12-19T19:59:16.496Z,46.23
2018-12-19T20:01:46.340Z,36.90
2018-12-19T20:04:15.314Z,33.00
2018-12-19T20:06:45.224Z,32.63
2018-12-19T20:09:14.224Z,35.40
2018-12-19T20:11:43.208Z,35.30
2018-12-19T20:14:12.239Z,34.33
2018-12-19T20:16:46.443Z,31.77
2018-12-19T20:19:15.624Z,31.47
2018-12-19T20:21:44.951Z,31.50
2018-12-19T20:24:13.959Z,32.80
2018-12-19T20:26:42.934Z,30.87
2018-12-19T20:29:11.887Z,29.10
2018-12-19T20:31:40.879Z,27.97
2018-12-19T20:34:09.883Z,31.40
2018-12-19T20:36:38.903Z,28.57
2018-12-19T20:39:08.542Z,31.30
2018-12-19T20:41:37.523Z,31.70
2018-12-19T20:44:06.608Z,31.43
2018-12-19T20:46:35.587Z,31.43
2018-12-19T20:49:04.646Z,33.80
2018-12-19T20:51:33.598Z,31.33
2018-12-19T20:54:02.564Z,32.03
2018-12-19T20:56:31.531Z,28.67
2018-12-19T20:59:00.510Z,28.80
2018-12-19T21:01:29.560Z,28.83
2018-12-19T21:03:58.503Z,27.00
2018-12-19T21:06:28.211Z,30.07
2018-12-19T21:08:57.210Z,29.83
2018-12-19T21:11:26.118Z,33.93
2018-12-19T21:13:55.087Z,27.17
2018-12-19T21:16:28.219Z,29.40
2018-12-19T21:18:57.170Z,29.13
2018-12-19T21:21:26.074Z,32.97
2018-12-19T21:23:55.058Z,28.53
2018-12-19T21:26:24.058Z,31.77
2018-12-19T21:28:53.050Z,29.57
2018-12-19T21:31:23.030Z,30.23
2018-12-19T21:33:52.287Z,34.03
2018-12-19T21:36:21.982Z,38.50
2018-12-19T21:38:50.947Z,32.50
2018-12-19T21:41:19.827Z,34.33
2018-12-19T21:43:53.637Z,27.80
2018-12-19T21:46:19.524Z,30.47
2018-12-19T21:48:48.650Z,30.33
2018-12-19T21:51:17.223Z,30.67
2018-12-19T21:53:45.818Z,29.37
2018-12-19T21:56:14.376Z,32.33
2018-12-19T21:58:42.932Z,31.53
2018-12-19T22:01:11.561Z,32.07
2018-12-19T22:03:40.165Z,29.13
2018-12-19T22:06:08.759Z,28.07
2018-12-19T22:08:37.340Z,34.83
2018-12-19T22:11:05.909Z,32.93
2018-12-19T22:13:34.483Z,31.83
2018-12-19T22:16:03.152Z,30.77
2018-12-19T22:18:37.296Z,32.87
2018-12-19T22:21:05.810Z,30.83
2018-12-19T22:23:34.358Z,30.93
2018-12-19T22:26:02.903Z,39.30
2018-12-19T22:28:31.432Z,31.67
2018-12-19T22:30:59.999Z,31.60
2018-12-19T22:33:28.540Z,34.33
2018-12-19T22:35:57.186Z,33.13
2018-12-19T22:38:25.955Z,31.27
2018-12-19T22:40:54.606Z,30.80
2018-12-19T22:43:23.221Z,30.93
2018-12-19T22:45:51.787Z,32.40
2018-12-19T22:48:35.167Z,32.57
2018-12-19T22:51:03.802Z,32.33
2018-12-19T22:53:32.405Z,31.53
2018-12-19T22:56:01.023Z,37.47
2018-12-19T22:58:29.606Z,29.77
2018-12-19T23:01:04.078Z,32.97
2018-12-19T23:03:38.168Z,31.17
2018-12-19T23:06:06.841Z,30.60
2018-12-19T23:08:35.414Z,29.50
2018-12-19T23:11:04.078Z,30.50
2018-12-19T23:13:32.802Z,29.33
2018-12-19T23:16:01.385Z,30.23
2018-12-19T23:18:30.339Z,32.07
2018-12-19T23:20:58.914Z,32.63
2018-12-19T23:23:27.478Z,34.97
2018-12-19T23:25:56.007Z,29.70
2018-12-19T23:28:24.669Z,33.90
2018-12-19T23:30:53.193Z,32.07
2018-12-19T23:33:21.825Z,30.33
2018-12-19T23:35:50.398Z,30.10
2018-12-19T23:38:18.922Z,28.87
2018-12-19T23:40:47.638Z,29.33
2018-12-19T23:43:16.332Z,30.10
2018-12-19T23:45:44.889Z,30.00
2018-12-19T23:48:13.552Z,30.20
2018-12-19T23:50:42.181Z,64.47
2018-12-19T23:53:14.377Z,32.77
2018-12-19T23:55:43.025Z,32.30
2018-12-19T23:58:11.659Z,30.30
